createdAt,value
2018-09-29T00:00:29.650Z,20.00
2018-09-29T00:01:29.625Z,21.20
2018-09-29T00:02:29.614Z,22.10
2018-09-29T00:03:29.595Z,20.50
2018-09-29T00:04:29.566Z,20.40
2018-09-29T00:05:29.680Z,19.40
2018-09-29T00:06:29.523Z,20.90
2018-09-29T00:07:29.507Z,21.60
2018-09-29T00:08:29.482Z,17.90
2018-09-29T00:09:29.462Z,19.30
2018-09-29T00:10:29.432Z,20.20
2018-09-29T00:11:29.408Z,19.80
2018-09-29T00:12:29.399Z,20.20
2018-09-29T00:13:29.361Z,18.60
2018-09-29T00:14:29.352Z,20.00
2018-09-29T00:15:29.319Z,20.00
2018-09-29T00:16:29.362Z,21.40
2018-09-29T00:17:29.279Z,19.30
2018-09-29T00:18:29.267Z,21.70
2018-09-29T00:19:29.231Z,21.00
2018-09-29T00:20:29.209Z,24.00
2018-09-29T00:21:29.190Z,24.90
2018-09-29T00:22:29.177Z,21.80
2018-09-29T00:23:29.155Z,21.10
2018-09-29T00:24:29.126Z,22.80
2018-09-29T00:25:29.101Z,21.80
2018-09-29T00:26:29.092Z,24.40
2018-09-29T00:27:29.060Z,22.70
2018-09-29T00:28:29.040Z,20.70
2018-09-29T00:29:29.016Z,19.60
2018-09-29T00:30:29.007Z,21.00
2018-09-29T00:31:28.986Z,20.50
2018-09-29T00:32:28.971Z,21.90
2018-09-29T00:33:28.944Z,20.80
2018-09-29T00:34:28.921Z,22.00
2018-09-29T00:35:28.895Z,22.00
2018-09-29T00:36:28.885Z,21.50
2018-09-29T00:37:28.847Z,22.20
2018-09-29T00:38:28.820Z,21.80
2018-09-29T00:39:28.802Z,20.90
2018-09-29T00:40:28.781Z,22.70
2018-09-29T00:41:28.765Z,20.90
2018-09-29T00:42:28.743Z,22.60
2018-09-29T00:43:28.731Z,21.20
2018-09-29T00:44:28.701Z,22.70
2018-09-29T00:45:28.699Z,23.10
2018-09-29T00:46:28.662Z,22.30
2018-09-29T00:47:28.640Z,22.80
2018-09-29T00:48:28.623Z,20.70
2018-09-29T00:49:28.587Z,20.80
2018-09-29T00:50:28.573Z,21.10
2018-09-29T00:51:28.549Z,21.00
2018-09-29T00:52:28.534Z,20.50
2018-09-29T00:53:28.515Z,21.00
2018-09-29T00:54:28.483Z,24.30
2018-09-29T00:55:28.465Z,21.50
2018-09-29T00:56:28.453Z,22.60
2018-09-29T00:57:28.428Z,23.70
2018-09-29T00:58:28.395Z,20.90
2018-09-29T00:59:28.386Z,26.20
2018-09-29T01:00:28.351Z,25.70
2018-09-29T01:01:28.334Z,23.80
2018-09-29T01:02:28.320Z,22.60
2018-09-29T01:03:28.287Z,22.70
2018-09-29T01:04:28.277Z,23.90
2018-09-29T01:05:28.291Z,21.70
2018-09-29T01:06:28.227Z,22.00
2018-09-29T01:07:28.211Z,21.10
2018-09-29T01:08:28.195Z,22.10
2018-09-29T01:09:28.165Z,20.90
2018-09-29T01:10:28.145Z,22.70
2018-09-29T01:11:28.130Z,20.60
2018-09-29T01:12:28.098Z,20.10
2018-09-29T01:13:28.075Z,19.70
2018-09-29T01:14:28.052Z,20.30
2018-09-29T01:15:28.039Z,18.80
2018-09-29T01:16:28.008Z,19.80
2018-09-29T01:17:27.989Z,21.40
2018-09-29T01:18:27.960Z,19.60
2018-09-29T01:19:27.958Z,21.20
2018-09-29T01:20:27.934Z,21.40
2018-09-29T01:21:27.902Z,22.40
2018-09-29T01:22:27.875Z,24.00
2018-09-29T01:23:27.855Z,23.10
2018-09-29T01:24:27.846Z,21.70
2018-09-29T01:25:27.824Z,25.70
2018-09-29T01:26:27.803Z,22.80
2018-09-29T01:27:27.774Z,24.80
2018-09-29T01:28:27.751Z,23.40
2018-09-29T01:29:27.727Z,21.00
2018-09-29T01:30:27.711Z,22.10
2018-09-29T01:31:27.683Z,16.60
2018-09-29T01:32:27.680Z,18.10
2018-09-29T01:33:27.652Z,14.40
2018-09-29T01:34:27.632Z,14.00
2018-09-29T01:35:27.611Z,14.60
2018-09-29T01:36:27.584Z,15.90
2018-09-29T01:37:27.569Z,14.40
2018-09-29T01:38:27.536Z,17.10
2018-09-29T01:39:27.524Z,16.00
2018-09-29T01:40:27.506Z,16.70
2018-09-29T01:41:27.478Z,15.70
2018-09-29T01:42:27.462Z,17.10
2018-09-29T01:43:27.424Z,17.00
2018-09-29T01:44:27.408Z,14.30
2018-09-29T01:45:27.387Z,16.80
2018-09-29T01:46:27.366Z,13.60
2018-09-29T01:47:27.354Z,15.60
2018-09-29T01:48:27.326Z,17.70
2018-09-29T01:49:27.313Z,15.20
2018-09-29T01:50:27.294Z,16.30
2018-09-29T01:51:27.271Z,18.00
2018-09-29T01:52:27.249Z,21.00
2018-09-29T01:53:27.220Z,20.20
2018-09-29T01:54:27.201Z,18.10
2018-09-29T01:55:27.173Z,17.80
2018-09-29T01:56:27.161Z,20.00
2018-09-29T01:57:27.128Z,18.20
2018-09-29T01:58:27.111Z,19.20
2018-09-29T01:59:27.097Z,15.30
2018-09-29T02:00:27.074Z,14.50
2018-09-29T02:01:27.055Z,17.60
2018-09-29T02:02:27.021Z,15.10
2018-09-29T02:03:27.013Z,18.80
2018-09-29T02:04:26.977Z,17.80
2018-09-29T02:05:26.959Z,15.60
2018-09-29T02:06:26.948Z,16.20
2018-09-29T02:07:26.914Z,15.30
2018-09-29T02:08:26.909Z,17.20
2018-09-29T02:09:26.880Z,16.20
2018-09-29T02:10:26.855Z,14.20
2018-09-29T02:11:26.831Z,15.60
2018-09-29T02:12:26.818Z,15.10
2018-09-29T02:13:26.795Z,14.60
2018-09-29T02:14:26.781Z,14.80
2018-09-29T02:15:26.752Z,14.30
2018-09-29T02:16:26.722Z,11.20
2018-09-29T02:17:26.702Z,12.70
2018-09-29T02:18:26.690Z,14.20
2018-09-29T02:19:26.673Z,13.40
2018-09-29T02:20:26.647Z,10.20
2018-09-29T02:21:26.616Z,12.60
2018-09-29T02:22:26.600Z,12.50
2018-09-29T02:23:26.583Z,10.30
2018-09-29T02:24:26.566Z,13.20
2018-09-29T02:25:26.526Z,13.10
2018-09-29T02:26:26.509Z,12.00
2018-09-29T02:27:26.484Z,12.80
2018-09-29T02:28:26.473Z,12.10
2018-09-29T02:29:26.443Z,13.10
2018-09-29T02:30:26.423Z,13.10
2018-09-29T02:31:26.398Z,11.20
2018-09-29T02:32:26.380Z,12.90
2018-09-29T02:33:26.364Z,14.30
2018-09-29T02:34:26.328Z,12.70
2018-09-29T02:35:26.328Z,15.10
2018-09-29T02:36:26.309Z,13.80
2018-09-29T02:37:26.284Z,16.80
2018-09-29T02:38:26.262Z,13.80
2018-09-29T02:39:26.245Z,13.10
2018-09-29T02:40:26.219Z,12.60
2018-09-29T02:41:26.185Z,13.60
2018-09-29T02:42:26.162Z,14.10
2018-09-29T02:43:26.161Z,13.10
2018-09-29T02:44:26.120Z,16.10
2018-09-29T02:45:26.097Z,14.10
2018-09-29T02:46:26.088Z,14.20
2018-09-29T02:47:26.068Z,17.30
2018-09-29T02:48:26.043Z,14.00
2018-09-29T02:49:26.013Z,15.90
2018-09-29T02:50:26.002Z,14.50
2018-09-29T02:51:25.969Z,18.20
2018-09-29T02:52:25.952Z,15.60
2018-09-29T02:53:25.929Z,16.10
2018-09-29T02:54:25.905Z,15.40
2018-09-29T02:55:25.891Z,15.20
2018-09-29T02:56:25.871Z,18.10
2018-09-29T02:57:25.850Z,17.00
2018-09-29T02:58:25.825Z,20.00
2018-09-29T02:59:25.805Z,22.20
2018-09-29T03:00:25.778Z,17.70
2018-09-29T03:01:25.767Z,16.50
2018-09-29T03:02:25.736Z,15.70
2018-09-29T03:03:25.724Z,17.90
2018-09-29T03:04:25.708Z,14.10
2018-09-29T03:05:25.669Z,12.70
2018-09-29T03:06:25.654Z,15.30
2018-09-29T03:07:25.642Z,19.20
2018-09-29T03:08:25.614Z,13.00
2018-09-29T03:09:25.588Z,14.10
2018-09-29T03:10:25.600Z,12.20
2018-09-29T03:11:25.550Z,12.60
2018-09-29T03:12:25.536Z,11.70
2018-09-29T03:13:25.498Z,12.00
2018-09-29T03:14:25.489Z,14.20
2018-09-29T03:15:25.454Z,14.20
2018-09-29T03:16:25.437Z,12.90
2018-09-29T03:17:25.430Z,11.20
2018-09-29T03:18:25.407Z,9.00
2018-09-29T03:19:25.417Z,11.90
2018-09-29T03:20:25.363Z,11.70
2018-09-29T03:21:25.340Z,8.10
2018-09-29T03:22:25.318Z,9.00
2018-09-29T03:23:25.290Z,7.40
2018-09-29T03:24:25.279Z,8.50
2018-09-29T03:25:25.255Z,11.20
2018-09-29T03:26:25.227Z,10.00
2018-09-29T03:27:25.193Z,8.50
2018-09-29T03:28:25.185Z,7.00
2018-09-29T03:29:25.159Z,6.10
2018-09-29T03:30:25.150Z,8.80
2018-09-29T03:31:25.188Z,8.50
2018-09-29T03:32:25.100Z,7.30
2018-09-29T03:33:25.081Z,8.10
2018-09-29T03:34:25.058Z,5.90
2018-09-29T03:35:25.029Z,7.40
2018-09-29T03:36:25.004Z,9.20
2018-09-29T03:37:24.997Z,10.50
2018-09-29T03:38:24.957Z,9.20
2018-09-29T03:39:25.293Z,8.70
2018-09-29T03:40:24.934Z,7.70
2018-09-29T03:41:24.895Z,8.20
2018-09-29T03:42:24.887Z,7.60
2018-09-29T03:43:24.866Z,7.40
2018-09-29T03:44:24.834Z,7.50
2018-09-29T03:45:24.824Z,8.40
2018-09-29T03:46:24.793Z,7.60
2018-09-29T03:47:24.767Z,6.80
2018-09-29T03:48:24.760Z,7.40
2018-09-29T03:49:24.736Z,8.00
2018-09-29T03:50:24.703Z,7.50
2018-09-29T03:51:24.678Z,8.30
2018-09-29T03:52:24.673Z,7.30
2018-09-29T03:53:24.644Z,6.70
2018-09-29T03:54:24.633Z,6.60
2018-09-29T03:55:24.602Z,6.90
2018-09-29T03:56:24.581Z,7.40
2018-09-29T03:57:24.559Z,7.70
2018-09-29T03:58:24.536Z,6.70
2018-09-29T03:59:24.512Z,6.90
2018-09-29T04:00:24.496Z,7.50
2018-09-29T04:01:24.475Z,7.30
2018-09-29T04:02:24.448Z,6.80
2018-09-29T04:03:24.432Z,7.30
2018-09-29T04:04:24.396Z,7.20
2018-09-29T04:05:24.385Z,7.50
2018-09-29T04:06:24.370Z,7.20
2018-09-29T04:07:24.334Z,7.00
2018-09-29T04:08:24.323Z,6.30
2018-09-29T04:09:24.294Z,6.30
2018-09-29T04:10:24.279Z,7.10
2018-09-29T04:11:24.317Z,7.40
2018-09-29T04:12:24.228Z,7.20
2018-09-29T04:13:24.209Z,6.30
2018-09-29T04:14:24.191Z,6.40
2018-09-29T04:15:24.151Z,4.90
2018-09-29T04:16:24.147Z,5.80
2018-09-29T04:17:24.115Z,5.70
2018-09-29T04:18:24.095Z,5.80
2018-09-29T04:19:24.078Z,5.60
2018-09-29T04:20:24.046Z,5.20
2018-09-29T04:21:24.022Z,5.10
2018-09-29T04:22:24.023Z,5.50
2018-09-29T04:23:23.981Z,6.10
2018-09-29T04:24:23.968Z,5.30
2018-09-29T04:25:23.937Z,4.70
2018-09-29T04:26:23.924Z,4.90
2018-09-29T04:27:23.902Z,4.90
2018-09-29T04:28:23.873Z,4.80
2018-09-29T04:29:23.853Z,4.00
2018-09-29T04:30:23.838Z,4.20
2018-09-29T04:31:23.820Z,4.90
2018-09-29T04:32:23.791Z,5.40
2018-09-29T04:33:23.764Z,4.50
2018-09-29T04:34:23.742Z,4.60
2018-09-29T04:35:23.731Z,4.70
2018-09-29T04:36:23.711Z,5.20
2018-09-29T04:37:23.672Z,5.10
2018-09-29T04:38:23.651Z,4.50
2018-09-29T04:39:23.633Z,4.20
2018-09-29T04:40:23.619Z,4.50
2018-09-29T04:41:23.590Z,4.10
2018-09-29T04:42:23.566Z,4.70
2018-09-29T04:43:23.561Z,3.50
2018-09-29T04:44:23.518Z,4.60
2018-09-29T04:45:23.498Z,3.60
2018-09-29T04:46:23.480Z,4.30
2018-09-29T04:47:23.471Z,5.60
2018-09-29T04:48:23.443Z,4.60
2018-09-29T04:49:23.428Z,4.20
2018-09-29T04:50:23.392Z,3.40
2018-09-29T04:51:23.371Z,4.30
2018-09-29T04:52:23.350Z,2.80
2018-09-29T04:53:23.339Z,3.20
2018-09-29T04:54:23.324Z,2.90
2018-09-29T04:55:23.286Z,3.40
2018-09-29T04:56:23.277Z,3.30
2018-09-29T04:57:23.238Z,3.10
2018-09-29T04:58:23.219Z,3.50
2018-09-29T04:59:23.202Z,3.50
2018-09-29T05:00:23.188Z,3.30
2018-09-29T05:01:23.153Z,3.90
2018-09-29T05:02:23.136Z,3.30
2018-09-29T05:03:23.122Z,3.30
2018-09-29T05:04:23.112Z,4.50
2018-09-29T05:05:23.076Z,4.10
2018-09-29T05:06:23.077Z,3.80
2018-09-29T05:07:23.037Z,4.70
2018-09-29T05:08:23.019Z,4.50
2018-09-29T05:09:22.983Z,4.80
2018-09-29T05:10:22.971Z,4.90
2018-09-29T05:11:22.949Z,4.60
2018-09-29T05:12:22.963Z,3.60
2018-09-29T05:13:22.909Z,6.40
2018-09-29T05:14:22.874Z,5.20
2018-09-29T05:15:22.858Z,4.90
2018-09-29T05:16:22.889Z,6.90
2018-09-29T05:17:22.816Z,7.10
2018-09-29T05:18:22.797Z,5.90
2018-09-29T05:19:22.779Z,5.40
2018-09-29T05:20:22.742Z,6.60
2018-09-29T05:21:22.734Z,5.70
2018-09-29T05:22:22.698Z,6.40
2018-09-29T05:23:22.832Z,6.40
2018-09-29T05:24:22.667Z,6.80
2018-09-29T05:25:22.641Z,6.40
2018-09-29T05:26:22.620Z,6.40
2018-09-29T05:27:22.592Z,7.10
2018-09-29T05:28:22.578Z,7.30
2018-09-29T05:29:22.553Z,9.90
2018-09-29T05:30:22.530Z,8.50
2018-09-29T05:31:22.502Z,9.20
2018-09-29T05:32:22.478Z,9.20
2018-09-29T05:33:22.465Z,9.80
2018-09-29T05:34:22.439Z,9.30
2018-09-29T05:35:22.424Z,8.50
2018-09-29T05:36:22.402Z,10.30
2018-09-29T05:37:22.387Z,10.40
2018-09-29T05:38:22.402Z,9.30
2018-09-29T05:39:22.340Z,10.10
2018-09-29T05:40:22.302Z,13.50
2018-09-29T05:41:22.284Z,10.60
2018-09-29T05:42:22.277Z,10.00
2018-09-29T05:43:22.243Z,11.70
2018-09-29T05:44:22.224Z,11.70
2018-09-29T05:45:22.201Z,10.30
2018-09-29T05:46:22.172Z,13.30
2018-09-29T05:47:22.152Z,10.10
2018-09-29T05:48:22.171Z,13.20
2018-09-29T05:49:22.177Z,13.20
2018-09-29T05:50:22.085Z,10.80
2018-09-29T05:51:22.078Z,11.70
2018-09-29T05:52:22.042Z,16.30
2018-09-29T05:53:22.035Z,13.20
2018-09-29T05:54:22.013Z,14.10
2018-09-29T05:55:21.981Z,13.20
2018-09-29T05:56:21.957Z,15.90
2018-09-29T05:57:21.934Z,14.30
2018-09-29T05:58:21.926Z,14.20
2018-09-29T05:59:21.903Z,13.00
2018-09-29T06:00:21.870Z,14.70
2018-09-29T06:01:21.858Z,15.50
2018-09-29T06:02:21.834Z,15.70
2018-09-29T06:03:21.802Z,14.80
2018-09-29T06:04:21.776Z,15.00
2018-09-29T06:05:21.856Z,16.00
2018-09-29T06:06:21.749Z,15.80
2018-09-29T06:07:21.817Z,13.60
2018-09-29T06:08:21.703Z,16.20
2018-09-29T06:09:21.687Z,15.00
2018-09-29T06:10:21.648Z,16.40
2018-09-29T06:11:21.646Z,15.60
2018-09-29T06:12:21.621Z,16.70
2018-09-29T06:13:21.586Z,14.70
2018-09-29T06:14:21.577Z,13.00
2018-09-29T06:15:21.551Z,15.60
2018-09-29T06:16:21.520Z,14.10
2018-09-29T06:17:21.496Z,15.40
2018-09-29T06:18:21.474Z,17.20
2018-09-29T06:19:21.456Z,13.90
2018-09-29T06:20:21.447Z,15.20
2018-09-29T06:21:21.427Z,12.80
2018-09-29T06:22:21.396Z,13.90
2018-09-29T06:23:21.383Z,14.10
2018-09-29T06:24:21.346Z,15.70
2018-09-29T06:25:21.334Z,15.00
2018-09-29T06:26:21.304Z,13.60
2018-09-29T06:27:21.292Z,13.90
2018-09-29T06:28:21.256Z,14.00
2018-09-29T06:29:21.245Z,16.70
2018-09-29T06:30:21.215Z,16.10
2018-09-29T06:31:21.201Z,13.80
2018-09-29T06:32:21.168Z,16.00
2018-09-29T06:33:21.160Z,17.70
2018-09-29T06:34:21.395Z,16.10
2018-09-29T06:35:21.102Z,18.10
2018-09-29T06:36:21.091Z,17.60
2018-09-29T06:37:21.074Z,19.60
2018-09-29T06:38:21.064Z,21.80
2018-09-29T06:39:21.018Z,20.20
2018-09-29T06:40:21.008Z,18.90
2018-09-29T06:41:20.976Z,20.90
2018-09-29T06:42:20.943Z,21.10
2018-09-29T06:43:20.929Z,21.10
2018-09-29T06:44:20.918Z,20.90
2018-09-29T06:45:20.892Z,19.70
2018-09-29T06:46:20.861Z,20.30
2018-09-29T06:47:20.854Z,19.20
2018-09-29T06:48:20.827Z,23.50
2018-09-29T06:49:20.803Z,20.50
2018-09-29T06:50:20.775Z,23.80
2018-09-29T06:51:20.768Z,20.40
2018-09-29T06:52:20.739Z,21.20
2018-09-29T06:53:20.720Z,24.80
2018-09-29T06:54:20.718Z,23.80
2018-09-29T06:55:20.664Z,24.00
2018-09-29T06:56:20.651Z,24.00
2018-09-29T06:57:20.633Z,23.90
2018-09-29T06:58:20.605Z,23.50
2018-09-29T06:59:20.592Z,20.80
2018-09-29T07:00:20.560Z,24.30
2018-09-29T07:01:20.533Z,18.50
2018-09-29T07:02:20.507Z,20.70
2018-09-29T07:03:20.483Z,22.90
2018-09-29T07:04:20.463Z,22.20
2018-09-29T07:05:20.442Z,23.00
2018-09-29T07:06:20.430Z,23.20
2018-09-29T07:07:20.409Z,20.40
2018-09-29T07:08:20.388Z,22.00
2018-09-29T07:09:20.354Z,20.30
2018-09-29T07:10:20.343Z,17.70
2018-09-29T07:11:20.355Z,21.70
2018-09-29T07:12:20.357Z,21.40
2018-09-29T07:13:20.282Z,22.10
2018-09-29T07:14:20.256Z,21.80
2018-09-29T07:15:20.222Z,22.80
2018-09-29T07:16:20.213Z,17.90
2018-09-29T07:17:20.182Z,22.50
2018-09-29T07:18:20.163Z,20.70
2018-09-29T07:19:20.137Z,23.70
2018-09-29T07:20:20.127Z,22.30
2018-09-29T07:21:20.103Z,20.30
2018-09-29T07:22:20.069Z,20.30
2018-09-29T07:23:20.059Z,18.00
2018-09-29T07:24:20.025Z,21.00
2018-09-29T07:25:20.035Z,18.20
2018-09-29T07:26:19.977Z,19.40
2018-09-29T07:27:19.974Z,20.40
2018-09-29T07:28:19.932Z,16.70
2018-09-29T07:29:19.913Z,15.90
2018-09-29T07:30:19.892Z,20.30
2018-09-29T07:31:19.932Z,19.00
2018-09-29T07:32:19.852Z,22.30
2018-09-29T07:33:19.833Z,18.40
2018-09-29T07:34:19.824Z,16.20
2018-09-29T07:35:19.786Z,18.70
2018-09-29T07:36:19.767Z,20.30
2018-09-29T07:37:19.740Z,18.40
2018-09-29T07:38:19.731Z,16.60
2018-09-29T07:39:19.710Z,16.80
2018-09-29T07:40:19.675Z,17.40
2018-09-29T07:41:19.655Z,20.20
2018-09-29T07:42:19.646Z,14.80
2018-09-29T07:43:19.611Z,17.40
2018-09-29T07:44:19.583Z,15.90
2018-09-29T07:45:19.581Z,19.20
2018-09-29T07:46:19.547Z,15.90
2018-09-29T07:47:19.541Z,15.30
2018-09-29T07:48:19.500Z,20.50
2018-09-29T07:49:19.621Z,15.50
2018-09-29T07:50:19.459Z,14.80
2018-09-29T07:51:19.451Z,13.60
2018-09-29T07:52:19.422Z,12.70
2018-09-29T07:53:19.393Z,13.40
2018-09-29T07:54:19.386Z,17.80
2018-09-29T07:55:19.348Z,15.80
2018-09-29T07:56:19.330Z,15.10
2018-09-29T07:57:19.321Z,15.10
2018-09-29T07:58:19.292Z,13.30
2018-09-29T07:59:19.260Z,17.10
2018-09-29T08:00:19.252Z,15.70
2018-09-29T08:01:19.220Z,15.10
2018-09-29T08:02:19.196Z,15.80
2018-09-29T08:03:19.172Z,15.20
2018-09-29T08:04:19.165Z,13.80
2018-09-29T08:05:19.130Z,15.30
2018-09-29T08:06:19.179Z,15.90
2018-09-29T08:07:19.104Z,16.60
2018-09-29T08:08:19.062Z,14.80
2018-09-29T08:09:19.051Z,15.40
2018-09-29T08:10:19.026Z,17.70
2018-09-29T08:11:19.009Z,16.10
2018-09-29T08:12:19.040Z,15.20
2018-09-29T08:13:18.953Z,18.70
2018-09-29T08:14:18.952Z,17.90
2018-09-29T08:15:18.910Z,17.40
2018-09-29T08:16:18.898Z,15.00
2018-09-29T08:17:18.885Z,17.70
2018-09-29T08:18:18.866Z,19.10
2018-09-29T08:19:18.837Z,16.90
2018-09-29T08:20:18.805Z,17.10
2018-09-29T08:21:18.781Z,18.20
2018-09-29T08:22:18.772Z,15.20
2018-09-29T08:23:18.746Z,15.40
2018-09-29T08:24:18.784Z,18.70
2018-09-29T08:25:18.709Z,16.80
2018-09-29T08:26:18.675Z,17.20
2018-09-29T08:27:18.661Z,20.60
2018-09-29T08:28:18.631Z,15.60
2018-09-29T08:29:18.618Z,18.30
2018-09-29T08:30:18.577Z,16.40
2018-09-29T08:31:18.557Z,17.90
2018-09-29T08:32:18.551Z,18.60
2018-09-29T08:33:18.534Z,20.20
2018-09-29T08:34:18.507Z,19.30
2018-09-29T08:35:18.487Z,22.30
2018-09-29T08:36:18.450Z,18.70
2018-09-29T08:37:18.438Z,16.20
2018-09-29T08:38:18.417Z,18.70
2018-09-29T08:39:18.383Z,19.20
2018-09-29T08:40:18.373Z,17.20
2018-09-29T08:41:18.339Z,18.60
2018-09-29T08:42:18.329Z,18.80
2018-09-29T08:43:18.311Z,23.00
2018-09-29T08:44:18.295Z,20.80
2018-09-29T08:45:18.263Z,18.40
2018-09-29T08:46:18.233Z,21.60
2018-09-29T08:47:18.233Z,23.10
2018-09-29T08:48:18.197Z,19.60
2018-09-29T08:49:18.168Z,23.30
2018-09-29T08:50:18.144Z,21.30
2018-09-29T08:51:18.134Z,21.00
2018-09-29T08:52:18.104Z,18.80
2018-09-29T08:53:18.183Z,19.20
2018-09-29T08:54:18.069Z,21.50
2018-09-29T08:55:18.037Z,23.80
2018-09-29T08:56:18.022Z,22.20
2018-09-29T08:57:18.004Z,19.00
2018-09-29T08:58:17.980Z,20.00
2018-09-29T08:59:17.951Z,17.20
2018-09-29T09:00:17.937Z,20.80
2018-09-29T09:01:17.907Z,16.30
2018-09-29T09:02:17.942Z,16.90
2018-09-29T09:03:17.923Z,15.10
2018-09-29T09:04:17.892Z,16.80
2018-09-29T09:05:17.877Z,16.50
2018-09-29T09:06:17.858Z,15.90
2018-09-29T09:07:17.836Z,17.20
2018-09-29T09:08:17.757Z,19.50
2018-09-29T09:09:17.750Z,16.80
2018-09-29T09:10:17.724Z,17.50
2018-09-29T09:11:17.703Z,16.80
2018-09-29T09:12:17.675Z,18.20
2018-09-29T09:13:17.642Z,16.10
2018-09-29T09:14:17.630Z,17.90
2018-09-29T09:15:17.611Z,17.20
2018-09-29T09:16:17.586Z,20.00
2018-09-29T09:17:17.552Z,18.50
2018-09-29T09:18:17.531Z,19.90
2018-09-29T09:19:17.521Z,18.40
2018-09-29T09:20:17.489Z,20.90
2018-09-29T09:21:17.460Z,19.90
2018-09-29T09:22:17.443Z,20.50
2018-09-29T09:23:17.472Z,20.00
2018-09-29T09:24:17.449Z,18.10
2018-09-29T09:25:17.380Z,18.80
2018-09-29T09:26:17.369Z,21.20
2018-09-29T09:27:17.337Z,19.20
2018-09-29T09:28:17.322Z,20.20
2018-09-29T09:29:17.297Z,21.40
2018-09-29T09:30:17.341Z,17.00
2018-09-29T09:31:17.244Z,17.60
2018-09-29T09:32:17.222Z,19.10
2018-09-29T09:33:17.215Z,20.50
2018-09-29T09:34:17.192Z,19.40
2018-09-29T09:35:17.175Z,18.30
2018-09-29T09:36:17.151Z,19.40
2018-09-29T09:37:17.122Z,19.60
2018-09-29T09:38:17.107Z,17.90
2018-09-29T09:39:17.090Z,17.00
2018-09-29T09:40:17.061Z,17.90
2018-09-29T09:41:17.041Z,18.20
2018-09-29T09:42:17.017Z,18.50
2018-09-29T09:43:16.995Z,20.40
2018-09-29T09:44:16.976Z,19.70
2018-09-29T09:45:16.955Z,20.00
2018-09-29T09:46:16.920Z,18.90
2018-09-29T09:47:16.898Z,18.30
2018-09-29T09:48:16.873Z,18.30
2018-09-29T09:49:16.901Z,19.00
2018-09-29T09:50:16.846Z,22.10
2018-09-29T09:51:16.826Z,20.10
2018-09-29T09:52:16.789Z,20.00
2018-09-29T09:53:16.779Z,19.30
2018-09-29T09:54:16.745Z,16.30
2018-09-29T09:55:16.736Z,17.40
2018-09-29T09:56:16.721Z,18.10
2018-09-29T09:57:16.694Z,18.10
2018-09-29T09:58:16.669Z,17.70
2018-09-29T09:59:16.649Z,18.40
2018-09-29T10:00:16.628Z,18.70
2018-09-29T10:01:16.608Z,17.20
2018-09-29T10:02:16.573Z,17.10
2018-09-29T10:03:16.553Z,18.40
2018-09-29T10:04:16.545Z,15.20
2018-09-29T10:05:16.524Z,17.40
2018-09-29T10:06:16.530Z,14.60
2018-09-29T10:07:16.477Z,13.80
2018-09-29T10:08:16.446Z,16.00
2018-09-29T10:09:16.424Z,16.70
2018-09-29T10:10:16.407Z,16.40
2018-09-29T10:11:16.389Z,15.10
2018-09-29T10:12:16.361Z,15.70
2018-09-29T10:13:16.343Z,15.60
2018-09-29T10:14:16.319Z,16.80
2018-09-29T10:15:16.299Z,12.40
2018-09-29T10:16:16.281Z,14.30
2018-09-29T10:17:16.263Z,15.40
2018-09-29T10:18:16.249Z,11.80
2018-09-29T10:19:16.221Z,13.40
2018-09-29T10:20:16.199Z,13.10
2018-09-29T10:21:16.184Z,14.20
2018-09-29T10:22:16.155Z,16.10
2018-09-29T10:23:16.144Z,15.10
2018-09-29T10:24:16.113Z,13.50
2018-09-29T10:25:16.095Z,14.00
2018-09-29T10:26:16.084Z,12.90
2018-09-29T10:27:16.053Z,13.60
2018-09-29T10:28:16.044Z,12.50
2018-09-29T10:29:16.027Z,13.70
2018-09-29T10:30:16.009Z,12.90
2018-09-29T10:31:15.968Z,13.10
2018-09-29T10:32:15.949Z,14.30
2018-09-29T10:33:15.931Z,12.90
2018-09-29T10:34:15.922Z,13.00
2018-09-29T10:35:15.886Z,14.90
2018-09-29T10:36:15.901Z,16.80
2018-09-29T10:37:15.861Z,12.60
2018-09-29T10:38:15.829Z,14.80
2018-09-29T10:39:15.811Z,15.30
2018-09-29T10:40:15.797Z,15.80
2018-09-29T10:41:15.793Z,14.90
2018-09-29T10:42:15.748Z,12.20
2018-09-29T10:43:15.735Z,14.50
2018-09-29T10:44:15.743Z,12.90
2018-09-29T10:45:15.686Z,12.20
2018-09-29T10:46:15.662Z,14.40
2018-09-29T10:47:15.638Z,15.80
2018-09-29T10:48:15.633Z,14.30
2018-09-29T10:49:15.616Z,14.30
2018-09-29T10:50:15.582Z,14.20
2018-09-29T10:51:15.564Z,13.60
2018-09-29T10:52:15.546Z,11.70
2018-09-29T10:53:15.536Z,12.50
2018-09-29T10:54:15.513Z,12.20
2018-09-29T10:55:15.495Z,14.50
2018-09-29T10:56:15.461Z,13.70
2018-09-29T10:57:15.443Z,12.90
2018-09-29T10:58:15.432Z,12.60
2018-09-29T10:59:15.497Z,14.20
2018-09-29T11:00:15.392Z,16.80
2018-09-29T11:01:15.361Z,13.50
2018-09-29T11:02:15.348Z,13.90
2018-09-29T11:03:15.323Z,10.90
2018-09-29T11:04:15.308Z,15.30
2018-09-29T11:05:15.279Z,11.10
2018-09-29T11:06:15.273Z,13.90
2018-09-29T11:07:15.248Z,11.00
2018-09-29T11:08:15.230Z,11.20
2018-09-29T11:09:15.199Z,11.20
2018-09-29T11:10:15.186Z,10.40
2018-09-29T11:11:15.155Z,11.10
2018-09-29T11:12:15.147Z,11.90
2018-09-29T11:13:15.125Z,11.80
2018-09-29T11:14:15.145Z,11.00
2018-09-29T11:15:15.090Z,11.00
2018-09-29T11:16:15.058Z,11.40
2018-09-29T11:17:15.034Z,12.20
2018-09-29T11:18:15.020Z,12.20
2018-09-29T11:19:15.006Z,10.80
2018-09-29T11:20:14.984Z,8.90
2018-09-29T11:21:14.964Z,9.70
2018-09-29T11:22:14.945Z,11.60
2018-09-29T11:23:14.931Z,11.50
2018-09-29T11:24:14.912Z,10.70
2018-09-29T11:25:14.882Z,11.50
2018-09-29T11:26:14.862Z,9.10
2018-09-29T11:27:14.842Z,8.90
2018-09-29T11:28:14.899Z,8.80
2018-09-29T11:29:14.799Z,8.90
2018-09-29T11:30:14.789Z,9.60
2018-09-29T11:31:14.773Z,9.00
2018-09-29T11:32:14.741Z,10.30
2018-09-29T11:33:14.742Z,10.20
2018-09-29T11:34:14.715Z,8.80
2018-09-29T11:35:14.703Z,10.10
2018-09-29T11:36:14.671Z,9.90
2018-09-29T11:37:14.648Z,8.90
2018-09-29T11:38:14.630Z,9.80
2018-09-29T11:39:14.649Z,9.50
2018-09-29T11:40:14.603Z,9.10
2018-09-29T11:41:14.574Z,8.40
2018-09-29T11:42:14.567Z,8.10
2018-09-29T11:43:14.535Z,9.10
2018-09-29T11:44:14.519Z,9.00
2018-09-29T11:45:14.496Z,9.70
2018-09-29T11:46:14.487Z,9.20
2018-09-29T11:47:14.469Z,11.10
2018-09-29T11:48:14.440Z,9.70
2018-09-29T11:49:14.427Z,9.90
2018-09-29T11:50:14.402Z,10.40
2018-09-29T11:51:14.383Z,11.00
2018-09-29T11:52:14.360Z,9.50
2018-09-29T11:53:14.388Z,12.50
2018-09-29T11:55:58.119Z,10.10
2018-09-29T11:56:58.094Z,10.20
2018-09-29T11:57:58.064Z,11.40
2018-09-29T11:58:58.057Z,9.60
2018-09-29T11:59:58.037Z,9.20
2018-09-29T12:00:58.023Z,9.70
2018-09-29T12:01:58.171Z,9.50
2018-09-29T12:02:57.982Z,9.20
2018-09-29T12:03:57.881Z,10.40
2018-09-29T12:04:57.861Z,10.20
2018-09-29T12:05:57.919Z,9.60
2018-09-29T12:06:57.865Z,9.10
2018-09-29T12:07:57.838Z,10.30
2018-09-29T12:08:57.792Z,9.80
2018-09-29T12:09:57.782Z,8.50
2018-09-29T12:10:57.763Z,8.80
2018-09-29T12:11:57.736Z,9.40
2018-09-29T12:12:57.726Z,9.00
2018-09-29T12:13:57.766Z,9.90
2018-09-29T12:14:57.708Z,7.30
2018-09-29T12:15:57.676Z,7.70
2018-09-29T12:16:57.651Z,6.80
2018-09-29T12:17:57.633Z,8.40
2018-09-29T12:18:57.626Z,8.10
2018-09-29T12:19:57.610Z,7.90
2018-09-29T12:20:57.591Z,7.70
2018-09-29T12:21:57.565Z,6.00
2018-09-29T12:22:57.563Z,6.80
2018-09-29T12:23:57.528Z,6.70
2018-09-29T12:24:57.513Z,6.50
2018-09-29T12:25:57.507Z,6.20
2018-09-29T12:26:57.486Z,6.80
2018-09-29T12:27:57.472Z,6.60
2018-09-29T12:28:57.450Z,6.60
2018-09-29T12:29:57.478Z,6.40
2018-09-29T12:30:57.416Z,6.00
2018-09-29T12:31:57.474Z,6.40
2018-09-29T12:32:57.378Z,5.80
2018-09-29T12:33:57.366Z,5.90
2018-09-29T12:34:57.341Z,6.30
2018-09-29T12:35:57.331Z,5.50
2018-09-29T12:36:57.421Z,5.20
2018-09-29T12:37:57.288Z,5.10
2018-09-29T12:38:57.280Z,4.80
2018-09-29T12:39:57.255Z,4.70
2018-09-29T12:40:57.241Z,4.60
2018-09-29T12:41:57.222Z,4.30
2018-09-29T12:42:57.193Z,4.60
2018-09-29T12:43:57.176Z,4.70
2018-09-29T12:44:57.254Z,4.20
2018-09-29T12:45:57.143Z,4.90
2018-09-29T12:46:57.127Z,5.30
2018-09-29T12:47:57.113Z,4.10
2018-09-29T12:48:57.095Z,4.20
2018-09-29T12:49:57.082Z,3.60
2018-09-29T12:50:57.061Z,4.10
2018-09-29T12:51:57.082Z,4.60
2018-09-29T12:52:57.030Z,3.60
2018-09-29T12:53:57.007Z,3.80
2018-09-29T12:54:56.978Z,2.70
2018-09-29T12:55:56.972Z,3.20
2018-09-29T12:56:56.953Z,4.10
2018-09-29T12:57:56.942Z,3.00
2018-09-29T12:58:56.975Z,3.00
2018-09-29T12:59:56.887Z,3.00
2018-09-29T13:00:56.872Z,2.90